Bookmark and Share
Track history (hours):
 

Crystal Symphony

Operator: Crystal Cruises

Last reported at 2014-Apr-15 23:09 UTC. Time now 2014-Apr-16 10:33 UTC.
Position N 31°15' E 121°30'.

Length 238 m; draft 8 m.

Type: Ship. MMSI: 309168000.

NotesDate/timePositionNaut miles runAvg speedWind from/ knotsBaromVisibWave heightAir tempDewpointWater temp
2014-Apr-15 23:09N 31°15' E 121°30'0 0.0
2014-Apr-15 22:21N 31°15' E 121°30'0 0.0
2014-Apr-15 20:14N 31°15' E 121°30'0 0.0
2014-Apr-15 19:32N 31°15' E 121°30'0 0.0
2014-Apr-15 16:18N 31°15' E 121°30'0 0.0
2014-Apr-15 15:30N 31°15' E 121°30'4 0.1
2014-Apr-13 20:14N 31°17' E 121°34'5 6.8
2014-Apr-13 19:28N 31°21' E 121°30'5 5.0
2014-Apr-13 18:33N 31°23' E 121°35'12 8.4
2014-Apr-13 17:06N 31°18' E 121°48'46115.1
2014-Apr-12 10:33N 24°17' E 118°15'1413.6
2014-Apr-12 09:33N 24°26' E 118°03'3 3.0
2014-Apr-12 08:30N 24°29' E 118°04'0 0.0
2014-Apr-12 07:30N 24°29' E 118°04'0 0.0
2014-Apr-12 06:23N 24°29' E 118°04'0 0.0
2014-Apr-12 05:32N 24°29' E 118°04'0 0.0
2014-Apr-12 04:28N 24°29' E 118°04'0 0.0
2014-Apr-12 03:28N 24°29' E 118°04'0 0.0
2014-Apr-12 02:28N 24°29' E 118°04'0 0.0
2014-Apr-12 01:33N 24°29' E 118°04'0 0.0
2014-Apr-12 00:30N 24°29' E 118°04'0 0.0
2014-Apr-11 23:32N 24°29' E 118°04'0 0.0
2014-Apr-11 22:33N 24°29' E 118°04'5 4.9
2014-Apr-11 21:30N 24°24' E 118°06'1010.0
2014-Apr-11 20:31N 24°17' E 118°13'9 9.7
2014-Apr-11 19:32N 24°10' E 118°20'9 9.5
2014-Apr-11 18:33N 24°01' E 118°22'9 9.3
2014-Apr-11 17:33N 23°52' E 118°20'1010.5
2014-Apr-11 16:33N 23°44' E 118°12'10 9.9
2014-Apr-11 15:33N 23°35' E 118°07'11 9.8
2014-Apr-11 14:28N 23°26' E 118°01'10 9.6
2014-Apr-11 13:24N 23°18' E 117°54'9 9.7
2014-Apr-11 12:30N 23°13' E 117°46'1010.0
2014-Apr-11 11:32N 23°07' E 117°38'1010.2
2014-Apr-11 10:33N 23°01' E 117°30'1110.4
2014-Apr-11 09:30N 22°54' E 117°20'1010.4
2014-Apr-11 08:32N 22°48' E 117°11'168 9.3
2014-Apr-10 14:33N 22°18' E 114°12'2 1.5
2014-Apr-10 13:16N 22°18' E 114°10'0 0.0
2014-Apr-10 12:22N 22°18' E 114°10'0 0.0
2014-Apr-10 11:33N 22°18' E 114°10'0 0.0
2014-Apr-10 10:21N 22°18' E 114°10'0 0.0
2014-Apr-10 09:26N 22°18' E 114°10'0 0.0
2014-Apr-10 08:32N 22°18' E 114°10'0 0.0
2014-Apr-10 07:26N 22°18' E 114°10'0 0.0
2014-Apr-10 06:19N 22°18' E 114°10'0 0.0
2014-Apr-10 05:25N 22°18' E 114°10'0 0.0
2014-Apr-10 04:24N 22°18' E 114°10'0 0.0
2014-Apr-10 03:12N 22°18' E 114°10'0 0.0
2014-Apr-10 02:11N 22°18' E 114°10'0 0.0
2014-Apr-10 01:23N 22°18' E 114°10'0 0.0
2014-Apr-10 00:23N 22°18' E 114°10'0 0.0
2014-Apr-09 23:16N 22°18' E 114°10'0 0.0
2014-Apr-09 22:28N 22°18' E 114°10'0 0.0
2014-Apr-09 21:27N 22°18' E 114°10'0 0.0
2014-Apr-09 20:33N 22°18' E 114°10'0 0.0
2014-Apr-09 19:26N 22°18' E 114°10'0 0.0
2014-Apr-09 18:26N 22°18' E 114°10'0 0.0
2014-Apr-09 17:13N 22°18' E 114°10'0 0.0
2014-Apr-09 16:31N 22°18' E 114°10'0 0.0
2014-Apr-09 15:31N 22°18' E 114°10'0 0.0
2014-Apr-09 14:30N 22°18' E 114°10'0 0.0
2014-Apr-09 13:30N 22°18' E 114°10'0 0.0
2014-Apr-09 12:23N 22°18' E 114°10'0 0.0
2014-Apr-09 11:29N 22°18' E 114°10'0 0.0
2014-Apr-09 10:28N 22°18' E 114°10'0 0.0
2014-Apr-09 09:16N 22°18' E 114°10'0 0.0
2014-Apr-09 08:10N 22°18' E 114°10'0 0.0
2014-Apr-09 07:33N 22°18' E 114°10'0 0.0
2014-Apr-09 06:33N 22°18' E 114°10'0 0.0
2014-Apr-09 05:21N 22°18' E 114°10'0 0.0
2014-Apr-09 04:26N 22°18' E 114°10'0 0.0
2014-Apr-09 03:31N 22°18' E 114°10'0 0.0
2014-Apr-09 02:31N 22°18' E 114°10'0 0.0
2014-Apr-09 01:31N 22°18' E 114°10'0 0.0
2014-Apr-09 00:24N 22°18' E 114°10'0 0.0
2014-Apr-08 23:30N 22°18' E 114°10'0 0.0
2014-Apr-08 22:29N 22°18' E 114°10'0 0.0
2014-Apr-08 21:23N 22°18' E 114°10'0 0.0
2014-Apr-08 20:22N 22°18' E 114°10'0 0.0
2014-Apr-08 19:28N 22°18' E 114°10'0 0.0
2014-Apr-08 18:28N 22°18' E 114°10'0 0.0
2014-Apr-08 17:33N 22°18' E 114°10'0 0.0
2014-Apr-08 16:33N 22°18' E 114°10'0 0.0
2014-Apr-08 15:32N 22°18' E 114°10'0 0.0
2014-Apr-08 14:20N 22°18' E 114°10'0 0.0
2014-Apr-08 13:31N 22°18' E 114°10'0 0.0
2014-Apr-08 11:18N 22°18' E 114°10'0 0.0
2014-Apr-08 10:30N 22°18' E 114°10'0 0.0
2014-Apr-08 09:30N 22°18' E 114°10'0 0.0
2014-Apr-08 08:29N 22°18' E 114°10'0 0.0
2014-Apr-08 07:29N 22°18' E 114°10'0 0.0
2014-Apr-08 06:22N 22°18' E 114°10'0 0.0
2014-Apr-08 05:28N 22°18' E 114°10'0 0.0
2014-Apr-08 04:27N 22°18' E 114°10'0 0.0
2014-Apr-08 03:33N 22°18' E 114°10'0 0.0
2014-Apr-08 02:27N 22°18' E 114°10'0 0.0
2014-Apr-08 01:32N 22°18' E 114°10'0 0.0
2014-Apr-08 00:26N 22°18' E 114°10'0 0.0
2014-Apr-07 23:25N 22°18' E 114°10'0 0.0
2014-Apr-07 22:31N 22°18' E 114°10'0 0.1
2014-Apr-07 21:33N 22°18' E 114°10'49410.7
2014-Apr-05 23:20N 16°21' E 108°08'  

Dump ship's entire track history

sailing weather and tide predictions

Crystal Symphony — C6MY5 — position and weather